Time;durP1;ratioP1;P1;durP2;ratioP2;P2;SDS_P1;SDS_P2;PMS_P1;PMS_P2;Temp;Humidity;BMP_temperature;BMP_pressure;BME280_temperature;BME280_humidity;BME280_pressure;Samples;Min_cycle;Max_cycle;Signal;HPM_P1;HPM_P2
2022/07/26 06:07:22;;;;;;;13.32;6.68;;;;;;;;;;4949634;23;20079;-59
2022/07/26 06:09:48;;;;;;;12.50;7.72;;;;;;;;;;4897298;29;20045;-58
2022/07/26 06:12:14;;;;;;;10.90;6.40;;;;;;;;;;4896227;29;20052;-58
2022/07/26 06:14:40;;;;;;;15.07;6.95;;;;;;;;;;4897488;29;20032;-59
2022/07/26 06:17:06;;;;;;;15.85;8.85;;;;;;;;;;4897430;29;20428;-62
2022/07/26 06:19:32;;;;;;;12.82;6.97;;;;;;;;;;4896124;29;20392;-69
2022/07/26 06:21:58;;;;;;;13.63;7.22;;;;;;;;;;4895788;29;20120;-59
2022/07/26 06:24:24;;;;;;;9.93;7.22;;;;;;;;;;4891921;29;20489;-60
2022/07/26 06:26:52;;;;;;;9.30;7.00;;;;;;;;;;4878398;29;20132;-59
2022/07/26 06:29:18;;;;;;;19.38;6.88;;;;;;;;;;4895924;29;20012;-59
2022/07/26 06:31:44;;;;;;;7.80;6.00;;;;;;;;;;4895985;29;20033;-64
2022/07/26 06:34:10;;;;;;;13.85;6.88;;;;;;;;;;4886929;29;20051;-64
2022/07/26 06:36:36;;;;;;;10.13;6.18;;;;;;;;;;4881474;29;20033;-63
2022/07/26 06:39:02;;;;;;;8.45;6.43;;;;;;;;;;4878379;29;20025;-62
2022/07/26 06:41:28;;;;;;;7.80;5.80;;;;;;;;;;4882188;29;20029;-62
2022/07/26 06:43:54;;;;;;;9.20;5.38;;;;;;;;;;4891802;29;20091;-62
2022/07/26 06:46:20;;;;;;;11.25;5.65;;;;;;;;;;4897133;29;20029;-62
2022/07/26 06:48:47;;;;;;;11.43;6.10;;;;;;;;;;4896974;29;20393;-62
2022/07/26 06:51:13;;;;;;;9.63;5.70;;;;;;;;;;4887514;29;20051;-62
2022/07/26 06:53:39;;;;;;;10.80;5.78;;;;;;;;;;4888306;29;20025;-61
2022/07/26 06:56:05;;;;;;;10.68;5.70;;;;;;;;;;4889477;29;20041;-61
2022/07/26 06:58:31;;;;;;;8.65;5.50;;;;;;;;;;4886360;29;20025;-62
2022/07/26 07:00:57;;;;;;;11.30;5.13;;;;;;;;;;4893396;29;20025;-63
2022/07/26 07:03:23;;;;;;;14.10;5.68;;;;;;;;;;4885412;29;20452;-63
2022/07/26 07:05:49;;;;;;;9.13;5.40;;;;;;;;;;4891591;29;20156;-61
2022/07/26 07:08:15;;;;;;;9.32;6.00;;;;;;;;;;4903776;29;20068;-61
2022/07/26 07:10:41;;;;;;;8.38;6.03;;;;;;;;;;4904805;29;20035;-61
2022/07/26 07:13:07;;;;;;;10.80;6.10;;;;;;;;;;4905291;29;20064;-61
2022/07/26 07:15:33;;;;;;;12.20;6.40;;;;;;;;;;4903678;29;20024;-61
2022/07/26 07:17:59;;;;;;;10.35;6.10;;;;;;;;;;4905167;29;20032;-63
2022/07/26 07:20:27;;;;;;;11.23;6.00;;;;;;;;;;4902506;29;20037;-61
2022/07/26 07:22:53;;;;;;;11.18;6.03;;;;;;;;;;4895944;29;20024;-60
2022/07/26 07:25:19;;;;;;;10.40;6.35;;;;;;;;;;4896118;29;20032;-61
2022/07/26 07:27:45;;;;;;;7.18;5.72;;;;;;;;;;4896143;29;20611;-61
2022/07/26 07:30:11;;;;;;;10.18;5.85;;;;;;;;;;4895954;29;20548;-63
2022/07/26 07:32:38;;;;;;;10.15;5.30;;;;;;;;;;4896162;29;20064;-63
2022/07/26 07:35:05;;;;;;;8.00;5.30;;;;;;;;;;4896153;29;20028;-62
2022/07/26 07:37:34;;;;;;;6.88;5.28;;;;;;;;;;4896281;29;20512;-62
2022/07/26 07:40:00;;;;;;;7.18;5.18;;;;;;;;;;4895969;29;20559;-62
2022/07/26 07:42:26;;;;;;;7.95;4.85;;;;;;;;;;4895895;29;20123;-62
2022/07/26 07:44:52;;;;;;;8.45;5.18;;;;;;;;;;4895857;29;20025;-62
2022/07/26 07:47:18;;;;;;;7.07;4.70;;;;;;;;;;4896104;29;20077;-62
2022/07/26 07:49:44;;;;;;;8.23;5.18;;;;;;;;;;4895976;29;20071;-62
2022/07/26 07:52:10;;;;;;;7.80;4.85;;;;;;;;;;4895695;29;20069;-62
2022/07/26 07:54:36;;;;;;;5.45;4.85;;;;;;;;;;4896107;29;20288;-62
2022/07/26 07:57:02;;;;;;;9.80;5.38;;;;;;;;;;4896147;29;20056;-62
2022/07/26 07:59:28;;;;;;;6.85;4.95;;;;;;;;;;4896116;29;20037;-62
2022/07/26 08:01:54;;;;;;;6.18;4.65;;;;;;;;;;4896082;29;20040;-62
2022/07/26 08:04:20;;;;;;;6.75;4.95;;;;;;;;;;4895712;29;20076;-62
2022/07/26 08:06:46;;;;;;;8.90;4.70;;;;;;;;;;4895305;29;20052;-62
2022/07/26 08:09:12;;;;;;;10.25;4.50;;;;;;;;;;4895879;29;20067;-62
2022/07/26 08:11:38;;;;;;;10.43;5.13;;;;;;;;;;4895809;29;20029;-62
2022/07/26 08:14:04;;;;;;;7.32;5.00;;;;;;;;;;4895859;29;20033;-62
2022/07/26 08:16:30;;;;;;;9.55;5.25;;;;;;;;;;4896127;29;20025;-62
2022/07/26 08:18:56;;;;;;;7.10;4.55;;;;;;;;;;4896155;29;20021;-62
2022/07/26 08:21:23;;;;;;;8.07;4.35;;;;;;;;;;4895753;29;20029;-62
2022/07/26 08:23:49;;;;;;;8.98;4.60;;;;;;;;;;4895879;29;20028;-62
2022/07/26 08:26:15;;;;;;;8.55;4.20;;;;;;;;;;4895932;29;20033;-62
2022/07/26 08:28:41;;;;;;;7.38;4.15;;;;;;;;;;4895367;29;20107;-62
2022/07/26 08:31:07;;;;;;;7.63;4.90;;;;;;;;;;4895703;29;20032;-62
2022/07/26 08:33:33;;;;;;;7.15;4.70;;;;;;;;;;4895766;29;20024;-62
2022/07/26 08:35:59;;;;;;;7.82;4.80;;;;;;;;;;4898511;29;20029;-62
2022/07/26 08:38:25;;;;;;;7.35;4.43;;;;;;;;;;4899058;29;20040;-62
2022/07/26 08:40:52;;;;;;;6.80;4.70;;;;;;;;;;4898989;29;20055;-62
2022/07/26 08:43:19;;;;;;;5.30;4.28;;;;;;;;;;4881972;29;20465;-62
2022/07/26 08:45:46;;;;;;;8.07;4.65;;;;;;;;;;4898724;29;20024;-62
2022/07/26 08:48:12;;;;;;;8.35;4.53;;;;;;;;;;4899159;29;20064;-62
2022/07/26 08:50:39;;;;;;;5.85;4.65;;;;;;;;;;4898884;29;20063;-62
2022/07/26 08:53:08;;;;;;;5.95;4.43;;;;;;;;;;4898966;29;20049;-61
2022/07/26 08:55:34;;;;;;;6.85;5.03;;;;;;;;;;4906477;29;20020;-61
2022/07/26 08:58:02;;;;;;;6.80;4.60;;;;;;;;;;4908381;29;20036;-62
2022/07/26 09:00:29;;;;;;;7.13;4.50;;;;;;;;;;4903818;29;20547;-61
2022/07/26 09:02:56;;;;;;;6.90;4.68;;;;;;;;;;4906761;29;20020;-61
2022/07/26 09:05:32;;;;;;;7.28;4.70;;;;;;;;;;4907156;29;20119;-62
2022/07/26 09:07:59;;;;;;;8.05;5.00;;;;;;;;;;4907482;29;20107;-62
2022/07/26 09:10:26;;;;;;;5.43;4.22;;;;;;;;;;4905429;29;20028;-62
2022/07/26 09:12:53;;;;;;;7.43;4.10;;;;;;;;;;4906453;29;20036;-62
2022/07/26 09:15:22;;;;;;;8.85;4.32;;;;;;;;;;4907561;29;20021;-62
2022/07/26 09:17:50;;;;;;;6.18;4.07;;;;;;;;;;4903856;29;20051;-63
2022/07/26 09:20:20;;;;;;;7.40;4.32;;;;;;;;;;4906111;29;20102;-63
2022/07/26 09:23:01;;;;;;;5.80;4.32;;;;;;;;;;4907628;29;20465;-63
2022/07/26 09:25:29;;;;;;;9.18;4.43;;;;;;;;;;4905420;29;20031;-62
2022/07/26 09:27:55;;;;;;;6.80;3.92;;;;;;;;;;4906972;29;20033;-63
2022/07/26 09:30:21;;;;;;;7.28;3.92;;;;;;;;;;4905570;29;20053;-63
2022/07/26 09:33:00;;;;;;;5.68;4.28;;;;;;;;;;4910051;29;20078;-62
2022/07/26 09:35:27;;;;;;;5.40;4.15;;;;;;;;;;4905212;29;20111;-62
2022/07/26 09:37:53;;;;;;;6.82;4.40;;;;;;;;;;4907130;29;20028;-63
2022/07/26 09:40:19;;;;;;;6.90;4.25;;;;;;;;;;4908358;29;20059;-63
2022/07/26 09:42:55;;;;;;;6.80;4.35;;;;;;;;;;4916735;29;20024;-63
2022/07/26 09:45:21;;;;;;;6.85;4.70;;;;;;;;;;4916591;29;20035;-63
2022/07/26 09:47:47;;;;;;;5.60;4.43;;;;;;;;;;4916671;29;20108;-62
2022/07/26 09:50:15;;;;;;;5.13;4.25;;;;;;;;;;4916855;29;20036;-62
2022/07/26 09:52:56;;;;;;;6.00;3.90;;;;;;;;;;4916636;29;20068;-62
2022/07/26 09:55:22;;;;;;;7.57;4.95;;;;;;;;;;4916936;29;20035;-63
2022/07/26 09:57:50;;;;;;;9.00;4.50;;;;;;;;;;4916742;29;20492;-63
2022/07/26 10:00:16;;;;;;;6.82;4.53;;;;;;;;;;4916444;29;20485;-63
2022/07/26 10:02:42;;;;;;;6.35;4.40;;;;;;;;;;4916689;29;20055;-62
2022/07/26 10:05:08;;;;;;;5.60;4.30;;;;;;;;;;4916151;29;20113;-62
2022/07/26 10:07:34;;;;;;;5.60;4.10;;;;;;;;;;4916288;29;20052;-63
2022/07/26 10:10:03;;;;;;;11.48;4.95;;;;;;;;;;4916329;29;20508;-63
2022/07/26 10:12:30;;;;;;;7.40;4.28;;;;;;;;;;4916152;29;20550;-62
2022/07/26 10:14:57;;;;;;;6.20;4.20;;;;;;;;;;4916385;29;20058;-63
2022/07/26 10:17:29;;;;;;;5.72;3.97;;;;;;;;;;4916051;29;20032;-63
2022/07/26 10:19:56;;;;;;;7.50;4.05;;;;;;;;;;4916101;29;20085;-63
2022/07/26 10:22:22;;;;;;;7.15;4.60;;;;;;;;;;4897933;29;20036;-62
2022/07/26 10:24:48;;;;;;;7.15;4.28;;;;;;;;;;4916034;29;20456;-63
2022/07/26 10:27:35;;;;;;;8.30;4.32;;;;;;;;;;4898464;29;20453;-63
2022/07/26 10:30:16;;;;;;;6.85;4.40;;;;;;;;;;4916076;29;20493;-62
2022/07/26 10:32:59;;;;;;;6.43;4.35;;;;;;;;;;4915427;29;20123;-63
2022/07/26 10:35:28;;;;;;;6.32;4.20;;;;;;;;;;4915573;29;20099;-63
2022/07/26 10:37:58;;;;;;;6.93;4.50;;;;;;;;;;4915870;29;20043;-62
2022/07/26 10:40:28;;;;;;;9.73;4.10;;;;;;;;;;4915971;29;20024;-63
2022/07/26 10:43:06;;;;;;;9.75;4.05;;;;;;;;;;4915797;29;20028;-65
2022/07/26 10:45:32;;;;;;;4.88;3.90;;;;;;;;;;4915901;29;20135;-64
2022/07/26 10:48:17;;;;;;;8.93;4.45;;;;;;;;;;4915716;29;20039;-63
2022/07/26 10:50:50;;;;;;;7.05;4.45;;;;;;;;;;4915926;29;20052;-64
2022/07/26 10:53:18;;;;;;;7.70;4.30;;;;;;;;;;4915576;29;20036;-64
2022/07/26 10:55:45;;;;;;;6.03;4.13;;;;;;;;;;4911703;29;20032;-64
2022/07/26 10:58:11;;;;;;;13.93;5.05;;;;;;;;;;4886436;29;20112;-64
2022/07/26 11:00:37;;;;;;;5.72;4.28;;;;;;;;;;4905982;29;20104;-64
2022/07/26 11:03:03;;;;;;;6.57;4.55;;;;;;;;;;4907277;29;20084;-63
2022/07/26 11:05:30;;;;;;;7.18;4.35;;;;;;;;;;4914936;29;20059;-63
2022/07/26 11:08:07;;;;;;;6.85;4.05;;;;;;;;;;4910715;29;20538;-64
2022/07/26 11:10:41;;;;;;;6.18;4.20;;;;;;;;;;4914889;29;20036;-62
2022/07/26 11:13:09;;;;;;;6.95;4.45;;;;;;;;;;4912562;29;20044;-63
2022/07/26 11:15:36;;;;;;;6.57;4.10;;;;;;;;;;4913640;29;20020;-64
2022/07/26 11:18:06;;;;;;;6.40;4.75;;;;;;;;;;4913899;29;20028;-64
2022/07/26 11:20:32;;;;;;;9.38;4.22;;;;;;;;;;4915044;29;20414;-64
2022/07/26 11:22:58;;;;;;;6.25;4.30;;;;;;;;;;4913693;29;20103;-64
2022/07/26 11:25:24;;;;;;;5.93;4.32;;;;;;;;;;4915183;29;20477;-64
2022/07/26 11:28:03;;;;;;;7.72;3.80;;;;;;;;;;4915516;29;20040;-64
2022/07/26 11:30:29;;;;;;;8.88;4.57;;;;;;;;;;4915241;29;20043;-64
2022/07/26 11:32:59;;;;;;;8.50;4.38;;;;;;;;;;4913089;29;20051;-63
2022/07/26 11:35:26;;;;;;;5.22;4.45;;;;;;;;;;4913742;29;20028;-64
2022/07/26 11:38:03;;;;;;;6.30;5.15;;;;;;;;;;4909632;29;20505;-64
2022/07/26 11:40:42;;;;;;;8.52;4.35;;;;;;;;;;4907247;29;20031;-64
2022/07/26 11:43:08;;;;;;;7.78;4.50;;;;;;;;;;4912177;29;20024;-64
2022/07/26 11:45:34;;;;;;;6.63;3.90;;;;;;;;;;4911983;29;20075;-64
2022/07/26 11:48:00;;;;;;;4.90;4.13;;;;;;;;;;4912180;29;20040;-63
2022/07/26 11:50:27;;;;;;;6.10;4.03;;;;;;;;;;4913002;29;20024;-63
2022/07/26 11:52:53;;;;;;;12.63;4.95;;;;;;;;;;4913987;29;20486;-64
2022/07/26 11:55:26;;;;;;;6.95;4.75;;;;;;;;;;4913102;29;20100;-64
2022/07/26 11:57:52;;;;;;;5.82;4.20;;;;;;;;;;4913339;29;20032;-64
2022/07/26 12:00:18;;;;;;;7.95;4.43;;;;;;;;;;4912638;29;20462;-64
2022/07/26 12:02:44;;;;;;;7.80;4.68;;;;;;;;;;4914308;29;20043;-63
2022/07/26 12:05:13;;;;;;;6.95;4.80;;;;;;;;;;4914394;29;20032;-64
2022/07/26 12:07:51;;;;;;;5.93;4.25;;;;;;;;;;4912337;29;20032;-62
2022/07/26 12:10:17;;;;;;;5.93;4.68;;;;;;;;;;4896055;29;20536;-62
2022/07/26 12:12:43;;;;;;;6.28;4.30;;;;;;;;;;4918296;29;20488;-63
2022/07/26 12:15:10;;;;;;;8.38;4.38;;;;;;;;;;4918434;29;20096;-62
2022/07/26 12:17:36;;;;;;;6.25;4.38;;;;;;;;;;4918554;29;20115;-63
2022/07/26 12:20:12;;;;;;;6.75;4.78;;;;;;;;;;4918506;29;20031;-62
2022/07/26 12:22:38;;;;;;;6.57;4.70;;;;;;;;;;4918538;29;20056;-62
2022/07/26 12:25:05;;;;;;;5.72;4.60;;;;;;;;;;4918301;29;20035;-62
2022/07/26 12:27:32;;;;;;;12.18;4.60;;;;;;;;;;4918266;29;20063;-62
2022/07/26 12:30:01;;;;;;;8.13;4.90;;;;;;;;;;4917809;29;20086;-63
2022/07/26 12:32:38;;;;;;;8.15;4.50;;;;;;;;;;4911590;29;20040;-62
2022/07/26 12:35:06;;;;;;;8.73;5.07;;;;;;;;;;4916562;29;20111;-63
2022/07/26 12:37:33;;;;;;;7.68;4.55;;;;;;;;;;4910270;29;20044;-62
2022/07/26 12:40:01;;;;;;;7.13;4.50;;;;;;;;;;4910328;29;20028;-62
2022/07/26 12:42:29;;;;;;;8.77;5.22;;;;;;;;;;4898798;29;20017;-62
2022/07/26 12:44:55;;;;;;;9.05;5.00;;;;;;;;;;4899196;29;20037;-62
2022/07/26 12:47:21;;;;;;;9.13;5.07;;;;;;;;;;4899175;29;20498;-62
2022/07/26 12:49:47;;;;;;;8.55;4.80;;;;;;;;;;4903407;29;20040;-62
2022/07/26 12:52:14;;;;;;;8.35;5.45;;;;;;;;;;4914354;29;20142;-62
2022/07/26 12:54:40;;;;;;;7.07;4.78;;;;;;;;;;4917728;29;20059;-62
2022/07/26 12:57:06;;;;;;;6.43;4.57;;;;;;;;;;4917127;29;20092;-62
2022/07/26 12:59:32;;;;;;;10.35;4.95;;;;;;;;;;4916956;29;20492;-62
2022/07/26 13:01:58;;;;;;;10.00;5.22;;;;;;;;;;4917607;29;20036;-62
2022/07/26 13:04:25;;;;;;;5.68;4.88;;;;;;;;;;4917682;29;20035;-62
2022/07/26 13:06:51;;;;;;;6.60;4.72;;;;;;;;;;4916875;29;20087;-62
2022/07/26 13:09:17;;;;;;;6.97;5.00;;;;;;;;;;4902377;29;20033;-62
2022/07/26 13:11:43;;;;;;;5.97;4.75;;;;;;;;;;4898395;29;20062;-63
2022/07/26 13:14:09;;;;;;;6.35;4.65;;;;;;;;;;4898613;29;20079;-62
2022/07/26 13:16:35;;;;;;;5.57;4.13;;;;;;;;;;4898525;29;20033;-62
2022/07/26 13:19:01;;;;;;;6.97;4.50;;;;;;;;;;4898590;29;20033;-62
2022/07/26 13:21:27;;;;;;;6.03;4.97;;;;;;;;;;4897964;29;20479;-62
2022/07/26 13:23:53;;;;;;;8.05;4.80;;;;;;;;;;4898424;29;20024;-62
2022/07/26 13:26:19;;;;;;;6.80;4.75;;;;;;;;;;4898333;29;20028;-62
2022/07/26 13:28:45;;;;;;;6.50;5.07;;;;;;;;;;4898155;29;20036;-63
2022/07/26 13:31:11;;;;;;;6.60;4.93;;;;;;;;;;4898097;29;20389;-63
2022/07/26 13:33:38;;;;;;;6.28;4.60;;;;;;;;;;4881521;29;20476;-64
2022/07/26 13:36:04;;;;;;;6.60;4.45;;;;;;;;;;4897870;29;20044;-63
2022/07/26 13:38:33;;;;;;;8.45;4.90;;;;;;;;;;4898198;29;20421;-63
2022/07/26 13:41:01;;;;;;;8.63;5.03;;;;;;;;;;4898083;29;20039;-63
2022/07/26 13:43:27;;;;;;;6.25;5.10;;;;;;;;;;4898113;29;20035;-63
2022/07/26 13:45:53;;;;;;;7.60;4.97;;;;;;;;;;4897959;29;20028;-62
2022/07/26 13:48:19;;;;;;;5.18;4.60;;;;;;;;;;4898081;29;20618;-64
2022/07/26 13:50:45;;;;;;;7.47;4.50;;;;;;;;;;4898081;29;20076;-64
2022/07/26 13:53:11;;;;;;;6.70;4.90;;;;;;;;;;4897842;29;20032;-64
2022/07/26 13:55:37;;;;;;;7.10;4.95;;;;;;;;;;4897987;29;20056;-62
2022/07/26 13:58:03;;;;;;;6.45;4.60;;;;;;;;;;4897814;29;20112;-65
2022/07/26 14:00:29;;;;;;;11.20;4.55;;;;;;;;;;4899504;29;20028;-63
2022/07/26 14:02:59;;;;;;;7.13;4.57;;;;;;;;;;4905752;29;20421;-63
2022/07/26 14:05:25;;;;;;;6.25;4.78;;;;;;;;;;4910407;29;20036;-63
2022/07/26 14:07:52;;;;;;;8.98;4.72;;;;;;;;;;4909999;29;20063;-62
2022/07/26 14:10:18;;;;;;;7.57;4.78;;;;;;;;;;4913478;29;20044;-62
2022/07/26 14:12:45;;;;;;;6.18;4.60;;;;;;;;;;4904833;29;20040;-63
2022/07/26 14:15:11;;;;;;;12.95;5.63;;;;;;;;;;4897634;29;20067;-63
2022/07/26 14:17:37;;;;;;;6.47;4.95;;;;;;;;;;4897360;29;20036;-64
2022/07/26 14:20:04;;;;;;;6.30;4.50;;;;;;;;;;4904404;29;20039;-63
2022/07/26 14:22:30;;;;;;;6.63;4.95;;;;;;;;;;4901527;29;20032;-64
2022/07/26 14:24:56;;;;;;;6.82;4.72;;;;;;;;;;4897256;29;20036;-65
2022/07/26 14:27:22;;;;;;;7.13;4.78;;;;;;;;;;4897056;29;20420;-64
2022/07/26 14:29:48;;;;;;;9.77;4.88;;;;;;;;;;4897107;29;20029;-64
2022/07/26 14:32:15;;;;;;;8.55;4.93;;;;;;;;;;4900805;29;20078;-64
2022/07/26 14:34:41;;;;;;;7.43;5.38;;;;;;;;;;4916096;29;20024;-65
2022/07/26 14:37:07;;;;;;;6.78;5.03;;;;;;;;;;4915518;29;20036;-64
2022/07/26 14:39:33;;;;;;;7.97;4.68;;;;;;;;;;4898104;29;20032;-63
2022/07/26 14:42:00;;;;;;;9.75;4.63;;;;;;;;;;4915443;29;20437;-63
2022/07/26 14:44:27;;;;;;;7.97;4.90;;;;;;;;;;4915523;29;20028;-63
2022/07/26 14:46:53;;;;;;;6.45;4.72;;;;;;;;;;4915606;29;20539;-63
2022/07/26 14:49:19;;;;;;;7.43;4.75;;;;;;;;;;4915816;29;20087;-63
2022/07/26 14:51:46;;;;;;;7.22;4.55;;;;;;;;;;4896645;29;20028;-64
2022/07/26 14:54:12;;;;;;;8.25;4.80;;;;;;;;;;4896530;29;20465;-63
2022/07/26 14:56:38;;;;;;;6.10;4.93;;;;;;;;;;4896892;29;20420;-63
2022/07/26 14:59:04;;;;;;;7.53;4.68;;;;;;;;;;4901226;29;20028;-63
2022/07/26 15:01:31;;;;;;;8.55;4.75;;;;;;;;;;4905707;29;20392;-62
2022/07/26 15:03:57;;;;;;;7.80;4.82;;;;;;;;;;4904110;29;20143;-62
2022/07/26 15:06:23;;;;;;;6.40;5.07;;;;;;;;;;4902488;29;20059;-62
2022/07/26 15:08:49;;;;;;;7.30;5.00;;;;;;;;;;4903554;29;20112;-63
2022/07/26 15:11:15;;;;;;;7.10;5.03;;;;;;;;;;4903635;29;20032;-62
2022/07/26 15:13:42;;;;;;;7.65;4.97;;;;;;;;;;4905290;29;20490;-63
2022/07/26 15:16:08;;;;;;;7.45;4.97;;;;;;;;;;4900766;29;20481;-63
2022/07/26 15:18:34;;;;;;;9.20;4.78;;;;;;;;;;4896188;29;20119;-62
2022/07/26 15:21:01;;;;;;;5.57;4.68;;;;;;;;;;4908336;29;20044;-63
2022/07/26 15:23:27;;;;;;;4.95;4.45;;;;;;;;;;4903233;29;20056;-63
2022/07/26 15:25:53;;;;;;;6.90;4.78;;;;;;;;;;4904417;29;20350;-63
2022/07/26 15:28:19;;;;;;;8.05;4.65;;;;;;;;;;4903381;29;20032;-63
2022/07/26 15:30:46;;;;;;;6.10;4.47;;;;;;;;;;4904955;29;20044;-63
2022/07/26 15:33:13;;;;;;;5.38;4.15;;;;;;;;;;4904895;29;20050;-62
2022/07/26 15:35:39;;;;;;;5.95;4.32;;;;;;;;;;4903382;29;20033;-62
2022/07/26 15:38:05;;;;;;;8.50;4.47;;;;;;;;;;4914706;29;20059;-62
2022/07/26 15:40:32;;;;;;;5.15;4.55;;;;;;;;;;4915272;29;20480;-63
2022/07/26 15:42:58;;;;;;;11.05;4.57;;;;;;;;;;4903815;29;20088;-62
2022/07/26 15:45:24;;;;;;;6.40;4.25;;;;;;;;;;4896103;29;20435;-62
2022/07/26 15:47:51;;;;;;;7.75;4.43;;;;;;;;;;4896071;29;20037;-62
2022/07/26 15:50:17;;;;;;;5.90;4.85;;;;;;;;;;4895954;29;20089;-63
2022/07/26 15:52:47;;;;;;;7.32;4.70;;;;;;;;;;4895856;29;20167;-63
2022/07/26 15:55:15;;;;;;;5.03;4.47;;;;;;;;;;4896011;29;20029;-63
2022/07/26 15:57:41;;;;;;;5.22;4.50;;;;;;;;;;4896080;29;20032;-62
2022/07/26 16:00:09;;;;;;;5.75;4.55;;;;;;;;;;4898337;29;20056;-63
2022/07/26 16:02:35;;;;;;;6.93;4.72;;;;;;;;;;4896138;29;20036;-62
2022/07/26 16:05:02;;;;;;;5.05;4.20;;;;;;;;;;4904530;29;20050;-62
2022/07/26 16:07:28;;;;;;;6.18;4.30;;;;;;;;;;4899073;29;20335;-63
2022/07/26 16:09:54;;;;;;;5.97;4.20;;;;;;;;;;4895841;29;20096;-63
2022/07/26 16:12:20;;;;;;;6.05;4.38;;;;;;;;;;4904224;29;20048;-63
2022/07/26 16:14:46;;;;;;;6.43;4.63;;;;;;;;;;4914763;29;20104;-63
2022/07/26 16:17:12;;;;;;;6.90;4.20;;;;;;;;;;4914622;29;20032;-63
2022/07/26 16:19:38;;;;;;;6.07;4.28;;;;;;;;;;4914827;29;20115;-63
2022/07/26 16:22:04;;;;;;;6.70;4.38;;;;;;;;;;4893057;29;20040;-63
2022/07/26 16:24:30;;;;;;;6.90;4.15;;;;;;;;;;4904200;29;20104;-63
2022/07/26 16:26:57;;;;;;;5.53;4.20;;;;;;;;;;4909771;29;20537;-63
2022/07/26 16:29:23;;;;;;;6.32;4.40;;;;;;;;;;4902882;29;20091;-63
2022/07/26 16:31:49;;;;;;;7.50;4.70;;;;;;;;;;4897661;29;20083;-63
2022/07/26 16:34:15;;;;;;;5.20;4.38;;;;;;;;;;4903899;29;20066;-63
2022/07/26 16:36:41;;;;;;;5.15;4.43;;;;;;;;;;4894722;29;20040;-62
2022/07/26 16:39:07;;;;;;;6.45;4.28;;;;;;;;;;4894428;29;20527;-63
2022/07/26 16:41:33;;;;;;;4.75;4.22;;;;;;;;;;4895917;29;20396;-64
2022/07/26 16:43:59;;;;;;;6.45;4.53;;;;;;;;;;4905599;29;20118;-64
2022/07/26 16:46:25;;;;;;;7.22;4.50;;;;;;;;;;4910189;29;20139;-63
2022/07/26 16:48:51;;;;;;;5.88;4.55;;;;;;;;;;4909082;29;20028;-63
2022/07/26 16:51:17;;;;;;;4.70;4.20;;;;;;;;;;4914517;29;20027;-63
2022/07/26 16:53:44;;;;;;;6.25;4.35;;;;;;;;;;4914553;29;20029;-63
2022/07/26 16:56:10;;;;;;;7.13;4.45;;;;;;;;;;4916457;29;20044;-63
2022/07/26 16:58:36;;;;;;;6.63;4.90;;;;;;;;;;4914051;29;20059;-63
2022/07/26 17:01:02;;;;;;;6.97;4.38;;;;;;;;;;4910522;29;20039;-63
2022/07/26 17:03:28;;;;;;;5.22;4.30;;;;;;;;;;4900854;29;20132;-64
2022/07/26 17:05:54;;;;;;;6.20;4.80;;;;;;;;;;4898106;29;20084;-64
2022/07/26 17:08:20;;;;;;;11.90;5.22;;;;;;;;;;4898020;29;20036;-64
2022/07/26 17:10:46;;;;;;;16.95;5.25;;;;;;;;;;4898469;29;20029;-63
2022/07/26 17:13:12;;;;;;;28.90;5.78;;;;;;;;;;4898360;29;20120;-63
2022/07/26 17:15:38;;;;;;;27.77;6.05;;;;;;;;;;4898298;29;20084;-60
2022/07/26 17:18:04;;;;;;;23.70;5.57;;;;;;;;;;4898334;29;20033;-65
2022/07/26 17:20:30;;;;;;;35.08;5.68;;;;;;;;;;4897109;29;20397;-64
2022/07/26 17:22:56;;;;;;;21.55;5.20;;;;;;;;;;4897999;29;20025;-63
2022/07/26 17:25:22;;;;;;;28.55;5.82;;;;;;;;;;4898041;29;20024;-63
2022/07/26 17:27:48;;;;;;;25.90;5.70;;;;;;;;;;4897934;29;20107;-63
2022/07/26 17:30:14;;;;;;;21.63;6.30;;;;;;;;;;4897969;29;20107;-64
2022/07/26 17:32:41;;;;;;;19.42;5.60;;;;;;;;;;4897536;29;20044;-62
2022/07/26 17:35:08;;;;;;;16.85;5.70;;;;;;;;;;4897693;29;20040;-63
2022/07/26 17:37:34;;;;;;;17.00;5.70;;;;;;;;;;4894423;29;20345;-64
2022/07/26 17:40:00;;;;;;;18.20;5.68;;;;;;;;;;4897361;29;20037;-64
2022/07/26 17:42:26;;;;;;;13.77;5.35;;;;;;;;;;4897606;29;20404;-63
2022/07/26 17:44:52;;;;;;;15.85;5.82;;;;;;;;;;4894944;29;20032;-63
2022/07/26 17:47:19;;;;;;;11.98;4.88;;;;;;;;;;4897961;29;20376;-63
2022/07/26 17:49:45;;;;;;;15.30;5.72;;;;;;;;;;4897482;29;20504;-63
2022/07/26 17:52:11;;;;;;;15.52;5.80;;;;;;;;;;4897207;29;20048;-63
2022/07/26 17:54:37;;;;;;;12.88;5.90;;;;;;;;;;4898389;29;20032;-62
2022/07/26 17:57:04;;;;;;;13.23;5.75;;;;;;;;;;4897039;29;20036;-62
2022/07/26 17:59:31;;;;;;;14.18;6.18;;;;;;;;;;4896685;29;20113;-62
2022/07/26 18:01:57;;;;;;;10.82;5.53;;;;;;;;;;4896588;29;20028;-62
2022/07/26 18:04:23;;;;;;;20.20;5.90;;;;;;;;;;4897352;29;20058;-62
2022/07/26 18:06:49;;;;;;;15.38;6.30;;;;;;;;;;4896133;29;20108;-62
2022/07/26 18:09:15;;;;;;;14.23;5.88;;;;;;;;;;4896321;29;20075;-62
2022/07/26 18:11:41;;;;;;;13.65;6.13;;;;;;;;;;4896654;29;20051;-62
2022/07/26 18:14:08;;;;;;;15.63;5.68;;;;;;;;;;4896939;29;20428;-63
2022/07/26 18:16:35;;;;;;;13.30;5.85;;;;;;;;;;4895992;29;20029;-61
2022/07/26 18:19:01;;;;;;;13.80;6.20;;;;;;;;;;4896385;29;20032;-63
2022/07/26 18:21:27;;;;;;;15.27;6.07;;;;;;;;;;4896480;29;20032;-63
2022/07/26 18:23:53;;;;;;;15.35;6.35;;;;;;;;;;4896647;29;20032;-63
2022/07/26 18:26:20;;;;;;;13.45;6.25;;;;;;;;;;4896555;29;20120;-63
2022/07/26 18:28:46;;;;;;;11.18;6.03;;;;;;;;;;4895942;29;20032;-63
2022/07/26 18:31:12;;;;;;;13.38;5.82;;;;;;;;;;4896398;29;20123;-62
2022/07/26 18:33:38;;;;;;;11.32;5.80;;;;;;;;;;4897248;29;20092;-63
2022/07/26 18:36:04;;;;;;;7.40;5.75;;;;;;;;;;4897064;29;20044;-62
2022/07/26 18:38:30;;;;;;;18.67;6.00;;;;;;;;;;4897011;29;20043;-62
2022/07/26 18:40:56;;;;;;;9.82;5.22;;;;;;;;;;4897029;29;20040;-62
2022/07/26 18:43:22;;;;;;;11.50;5.70;;;;;;;;;;4896840;29;20032;-66
2022/07/26 18:45:48;;;;;;;10.23;5.40;;;;;;;;;;4896836;29;20039;-62
2022/07/26 18:48:14;;;;;;;10.48;6.13;;;;;;;;;;4897054;29;20132;-62
2022/07/26 18:50:40;;;;;;;11.23;5.55;;;;;;;;;;4896871;29;20036;-63
2022/07/26 18:53:07;;;;;;;11.13;5.50;;;;;;;;;;4896507;29;20036;-63
2022/07/26 18:55:33;;;;;;;11.18;5.20;;;;;;;;;;4896678;29;20028;-63
2022/07/26 18:57:59;;;;;;;10.10;5.60;;;;;;;;;;4896661;29;20127;-62
2022/07/26 19:00:25;;;;;;;10.98;5.72;;;;;;;;;;4896761;29;20052;-63
2022/07/26 19:02:53;;;;;;;15.80;5.65;;;;;;;;;;4896482;29;20036;-62
2022/07/26 19:05:19;;;;;;;12.23;5.57;;;;;;;;;;4896520;29;20032;-62
2022/07/26 19:07:46;;;;;;;13.63;5.93;;;;;;;;;;4896201;29;20084;-62
2022/07/26 19:10:12;;;;;;;11.25;5.38;;;;;;;;;;4896457;29;20024;-62
2022/07/26 19:12:38;;;;;;;12.32;5.63;;;;;;;;;;4896356;29;20032;-62
2022/07/26 19:15:05;;;;;;;7.75;5.47;;;;;;;;;;4896714;29;20422;-62
2022/07/26 19:17:31;;;;;;;12.52;5.30;;;;;;;;;;4896177;29;20075;-62
2022/07/26 19:19:57;;;;;;;12.55;5.38;;;;;;;;;;4896338;29;20084;-62
2022/07/26 19:22:24;;;;;;;12.20;5.72;;;;;;;;;;4896525;29;20044;-62
2022/07/26 19:24:50;;;;;;;9.35;5.70;;;;;;;;;;4896480;29;20028;-62
2022/07/26 19:27:16;;;;;;;11.00;5.18;;;;;;;;;;4896554;29;20441;-62
2022/07/26 19:29:43;;;;;;;11.95;5.78;;;;;;;;;;4896106;29;20084;-62
2022/07/26 19:32:09;;;;;;;12.10;5.90;;;;;;;;;;4896147;29;20044;-62
2022/07/26 19:34:35;;;;;;;8.00;5.57;;;;;;;;;;4896309;29;20025;-62
2022/07/26 19:37:02;;;;;;;9.50;5.40;;;;;;;;;;4896299;29;20036;-63
2022/07/26 19:39:28;;;;;;;7.63;5.20;;;;;;;;;;4896272;29;20029;-62
2022/07/26 19:41:54;;;;;;;8.40;5.70;;;;;;;;;;4896094;29;20024;-62
2022/07/26 19:44:20;;;;;;;9.02;5.55;;;;;;;;;;4896194;29;20039;-62
2022/07/26 19:46:46;;;;;;;10.07;5.50;;;;;;;;;;4895856;29;20119;-62
2022/07/26 19:49:14;;;;;;;10.13;5.20;;;;;;;;;;4896259;29;20057;-63
2022/07/26 19:51:40;;;;;;;10.05;5.78;;;;;;;;;;4895941;29;20040;-62
2022/07/26 19:54:07;;;;;;;10.02;6.05;;;;;;;;;;4896105;29;20032;-62
2022/07/26 19:56:33;;;;;;;13.23;6.05;;;;;;;;;;4896047;29;20033;-62
2022/07/26 19:58:59;;;;;;;8.93;5.95;;;;;;;;;;4896039;29;20064;-62
2022/07/26 20:01:26;;;;;;;12.25;5.78;;;;;;;;;;4896041;29;20450;-62
2022/07/26 20:03:52;;;;;;;10.60;5.78;;;;;;;;;;4896133;29;20029;-62
2022/07/26 20:06:18;;;;;;;10.73;5.38;;;;;;;;;;4895506;29;20508;-63
2022/07/26 20:08:46;;;;;;;6.95;5.50;;;;;;;;;;4896073;29;20041;-66
2022/07/26 20:11:12;;;;;;;12.82;5.40;;;;;;;;;;4895766;29;20358;-64
2022/07/26 20:13:38;;;;;;;7.75;5.80;;;;;;;;;;4896172;29;20039;-65
2022/07/26 20:16:05;;;;;;;9.23;5.68;;;;;;;;;;4896059;29;20040;-65
2022/07/26 20:18:31;;;;;;;10.50;5.85;;;;;;;;;;4896036;29;20100;-64
2022/07/26 20:20:58;;;;;;;10.68;5.55;;;;;;;;;;4895783;29;20037;-64
2022/07/26 20:23:24;;;;;;;9.70;5.90;;;;;;;;;;4895687;29;20032;-65
2022/07/26 20:25:50;;;;;;;9.48;5.90;;;;;;;;;;4897412;29;20029;-63
2022/07/26 20:28:17;;;;;;;7.70;5.30;;;;;;;;;;4895825;29;20466;-65
2022/07/26 20:30:46;;;;;;;12.13;5.85;;;;;;;;;;4894142;29;20071;-63
2022/07/26 20:33:13;;;;;;;10.73;6.05;;;;;;;;;;4910339;29;20040;-66
2022/07/26 20:35:39;;;;;;;9.60;5.38;;;;;;;;;;4901246;29;20035;-64
2022/07/26 20:38:05;;;;;;;12.23;6.03;;;;;;;;;;4906381;29;20057;-63
2022/07/26 20:40:31;;;;;;;11.25;6.28;;;;;;;;;;4917685;29;20567;-64
2022/07/26 20:42:57;;;;;;;10.93;6.10;;;;;;;;;;4917955;29;20392;-65